Poughkeepsie, Arkansas
Current Conditions -  °F | °C
As of 8:35 AM on Friday 28 Nov 2014 (Local Time) from KBVX Reporting Station
Clear Clear  
Wind Chill: 32°   Ceiling: Unl
Heat Index: 37°   Visibility: 10mi
Dew Point: 28°   Wind: 7mph
Humidity: 70%   Direction: 180°S
Pressure: 30.33"   Gusts: NA
Location:  36.08°N, 91.48°W
Report Text: KBVX 281435Z AUTO 18006KT 10SM CLR 03/M02 A3033 RMK AO1
Loading
Personal Weather Stations






























Interactive Weather Map New forecast layout! Learn more

10-Day Weather Forecast

Advertisements
Track Severe Weather on mobile